createdAt,value
2024-03-08T00:00:53.169Z,14.33
2024-03-08T00:03:55.046Z,15.60
2024-03-08T00:06:56.894Z,15.93
2024-03-08T00:09:58.734Z,15.73
2024-03-08T00:13:00.614Z,15.67
2024-03-08T00:16:03.446Z,15.80
2024-03-08T00:19:05.332Z,14.45
2024-03-08T00:22:07.298Z,16.23
2024-03-08T00:25:10.310Z,15.60
2024-03-08T00:28:16.060Z,15.67
2024-03-08T00:31:18.175Z,15.90
2024-03-08T00:34:19.933Z,14.95
2024-03-08T00:37:23.062Z,15.65
2024-03-08T00:40:24.922Z,15.93
2024-03-08T00:43:27.117Z,16.73
2024-03-08T00:46:29.909Z,17.23
2024-03-08T00:49:31.742Z,14.45
2024-03-08T00:52:35.556Z,17.13
2024-03-08T00:55:37.405Z,15.50
2024-03-08T00:58:39.255Z,16.03
2024-03-08T01:01:45.252Z,15.87
2024-03-08T01:04:48.545Z,16.45
2024-03-08T01:07:50.888Z,17.05
2024-03-08T01:10:52.643Z,17.58
2024-03-08T01:13:54.644Z,15.87
2024-03-08T01:16:56.697Z,16.50
2024-03-08T01:19:59.629Z,16.90
2024-03-08T01:23:01.431Z,17.15
2024-03-08T01:26:03.450Z,17.85
2024-03-08T01:29:05.263Z,18.40
2024-03-08T01:32:07.477Z,17.57
2024-03-08T01:35:10.768Z,17.80
2024-03-08T01:38:12.595Z,17.38
2024-03-08T01:41:15.373Z,19.83
2024-03-08T01:44:18.769Z,17.57
2024-03-08T01:47:24.151Z,17.47
2024-03-08T01:50:26.132Z,17.25
2024-03-08T01:53:29.402Z,18.38
2024-03-08T01:56:33.046Z,15.80
2024-03-08T01:59:35.116Z,17.80
2024-03-08T02:02:38.648Z,18.13
2024-03-08T02:05:42.450Z,14.73
2024-03-08T02:08:45.592Z,18.33
2024-03-08T02:11:47.571Z,19.13
2024-03-08T02:14:49.706Z,16.90
2024-03-08T02:17:51.594Z,19.70
2024-03-08T02:21:04.194Z,22.58
2024-03-08T02:24:07.150Z,19.45
2024-03-08T02:27:09.045Z,19.90
2024-03-08T02:30:13.899Z,17.83
2024-03-08T02:33:20.942Z,17.80
2024-03-08T02:36:22.856Z,18.88
2024-03-08T02:39:24.768Z,19.40
2024-03-08T02:42:26.552Z,20.65
2024-03-08T02:45:28.337Z,23.83
2024-03-08T02:48:30.199Z,22.43
2024-03-08T02:51:32.163Z,23.65
2024-03-08T02:54:33.933Z,22.40
2024-03-08T02:57:35.760Z,20.45
2024-03-08T03:00:39.916Z,22.10
2024-03-08T03:03:42.475Z,18.47
2024-03-08T03:06:44.273Z,19.42
2024-03-08T03:09:46.545Z,21.58
2024-03-08T03:12:51.944Z,18.77
2024-03-08T03:15:53.738Z,17.57
2024-03-08T03:18:57.192Z,18.07
2024-03-08T03:21:59.263Z,19.52
2024-03-08T03:25:01.659Z,22.20
2024-03-08T03:28:03.860Z,21.55
2024-03-08T03:31:07.930Z,18.20
2024-03-08T03:34:11.261Z,19.67
2024-03-08T03:37:13.753Z,22.70
2024-03-08T03:40:16.083Z,19.90
2024-03-08T03:43:17.825Z,19.77
2024-03-08T03:46:19.714Z,19.63
2024-03-08T03:49:21.629Z,22.87
2024-03-08T03:52:23.563Z,24.65
2024-03-08T03:55:25.454Z,25.98
2024-03-08T03:58:28.507Z,22.42
2024-03-08T04:01:30.838Z,30.80
2024-03-08T04:04:32.799Z,30.57
2024-03-08T04:07:35.517Z,25.00
2024-03-08T04:10:37.758Z,23.75
2024-03-08T04:13:39.566Z,23.45
2024-03-08T04:16:41.317Z,24.37
2024-03-08T04:19:43.687Z,31.30
2024-03-08T04:22:48.256Z,26.08
2024-03-08T04:25:50.103Z,36.72
2024-03-08T04:28:51.837Z,37.25
2024-03-08T04:31:57.175Z,31.83
2024-03-08T04:34:59.476Z,25.00
2024-03-08T04:38:01.257Z,24.92
2024-03-08T04:41:03.157Z,28.88
2024-03-08T04:44:05.025Z,19.35
2024-03-08T04:47:09.730Z,18.00
2024-03-08T04:50:12.456Z,19.43
2024-03-08T04:53:14.873Z,19.33
2024-03-08T04:56:17.191Z,20.05
2024-03-08T04:59:19.040Z,18.42
2024-03-08T05:02:23.959Z,18.40
2024-03-08T05:05:26.069Z,18.20
2024-03-08T05:08:27.898Z,18.27
2024-03-08T05:11:29.727Z,23.27
2024-03-08T05:14:31.627Z,20.35
2024-03-08T05:17:33.499Z,20.90
2024-03-08T05:20:36.260Z,18.77
2024-03-08T05:23:39.885Z,21.40
2024-03-08T05:26:41.733Z,23.48
2024-03-08T05:29:43.592Z,20.13
2024-03-08T05:32:47.997Z,20.27
2024-03-08T05:35:49.848Z,20.33
2024-03-08T05:38:51.772Z,19.73
2024-03-08T05:41:54.002Z,19.50
2024-03-08T05:44:58.425Z,18.02
2024-03-08T05:48:00.341Z,20.13
2024-03-08T05:51:03.329Z,18.57
2024-03-08T05:54:07.116Z,17.38
2024-03-08T05:57:09.281Z,18.65
2024-03-08T06:00:16.963Z,17.00
2024-03-08T06:03:22.588Z,18.13
2024-03-08T06:06:25.488Z,21.73
2024-03-08T06:09:27.398Z,16.92
2024-03-08T06:12:33.552Z,22.10
2024-03-08T06:15:35.941Z,18.90
2024-03-08T06:18:38.039Z,18.90
2024-03-08T06:21:40.392Z,18.77
2024-03-08T06:24:42.244Z,22.50
2024-03-08T06:27:44.910Z,16.75
2024-03-08T06:30:46.893Z,16.50
2024-03-08T06:33:51.071Z,17.23
2024-03-08T06:36:53.719Z,15.63
2024-03-08T06:39:56.452Z,18.15
2024-03-08T06:42:58.222Z,17.58
2024-03-08T06:46:00.038Z,18.38
2024-03-08T06:49:01.943Z,19.07
2024-03-08T06:52:05.295Z,19.23
2024-03-08T06:55:07.593Z,14.55
2024-03-08T06:58:11.806Z,17.85
2024-03-08T07:01:16.022Z,16.92
2024-03-08T07:04:18.048Z,18.43
2024-03-08T07:07:21.549Z,20.00
2024-03-08T07:10:26.865Z,17.08
2024-03-08T07:13:30.122Z,18.50
2024-03-08T07:16:32.092Z,18.92
2024-03-08T07:19:33.847Z,17.63
2024-03-08T07:22:37.875Z,18.73
2024-03-08T07:25:40.753Z,19.73
2024-03-08T07:28:42.572Z,19.23
2024-03-08T07:32:03.259Z,16.58
2024-03-08T07:35:08.341Z,20.43
2024-03-08T07:38:11.365Z,19.13
2024-03-08T07:41:15.677Z,16.95
2024-03-08T07:44:17.522Z,19.80
2024-03-08T07:47:21.235Z,15.68
2024-03-08T07:50:24.535Z,15.50
2024-03-08T07:53:26.422Z,16.90
2024-03-08T07:56:28.157Z,16.50
2024-03-08T07:59:31.794Z,16.55
2024-03-08T08:02:37.385Z,17.02
2024-03-08T08:05:40.528Z,15.27
2024-03-08T08:08:45.500Z,16.40
2024-03-08T08:11:48.014Z,14.38
2024-03-08T08:14:49.749Z,16.27
2024-03-08T08:17:53.169Z,15.32
2024-03-08T08:20:55.243Z,17.63
2024-03-08T08:23:57.043Z,18.53
2024-03-08T08:26:58.799Z,15.65
2024-03-08T08:30:01.461Z,19.23
2024-03-08T08:33:03.509Z,20.60
2024-03-08T08:36:05.818Z,17.30
2024-03-08T08:39:14.346Z,20.57
2024-03-08T08:42:18.956Z,19.02
2024-03-08T08:45:24.465Z,20.73
2024-03-08T08:48:35.666Z,16.70
2024-03-08T08:51:38.707Z,17.87
2024-03-08T08:54:40.621Z,18.10
2024-03-08T08:57:51.101Z,17.05
2024-03-08T09:00:53.502Z,19.92
2024-03-08T09:03:55.306Z,20.35
2024-03-08T09:06:58.014Z,22.50
2024-03-08T09:10:00.158Z,20.83
2024-03-08T09:13:05.537Z,19.92
2024-03-08T09:16:07.949Z,18.80
2024-03-08T09:19:12.145Z,20.63
2024-03-08T09:22:14.611Z,19.73
2024-03-08T09:25:16.421Z,20.90
2024-03-08T09:28:18.277Z,18.42
2024-03-08T09:31:20.977Z,20.02
2024-03-08T09:34:29.135Z,21.95
2024-03-08T09:37:35.429Z,23.07
2024-03-08T09:40:37.210Z,17.07
2024-03-08T09:43:39.713Z,19.50
2024-03-08T09:46:41.920Z,21.60
2024-03-08T09:49:44.629Z,22.80
2024-03-08T09:52:50.764Z,21.70
2024-03-08T09:55:53.287Z,20.97
2024-03-08T09:59:15.111Z,19.50
2024-03-08T10:02:17.657Z,17.23
2024-03-08T10:05:19.797Z,19.33
2024-03-08T10:08:21.714Z,20.07
2024-03-08T10:11:24.188Z,17.83
2024-03-08T10:14:29.414Z,18.67
2024-03-08T10:17:34.304Z,20.92
2024-03-08T10:20:39.442Z,23.02
2024-03-08T10:23:43.140Z,19.63
2024-03-08T10:26:45.414Z,24.10
2024-03-08T10:29:49.060Z,21.55
2024-03-08T10:32:51.029Z,19.85
2024-03-08T10:36:03.928Z,21.50
2024-03-08T10:39:22.087Z,23.33
2024-03-08T10:42:29.976Z,25.60
2024-03-08T10:45:37.755Z,22.33
2024-03-08T10:48:50.572Z,23.52
2024-03-08T10:51:54.056Z,23.23
2024-03-08T10:55:16.922Z,23.07
2024-03-08T10:58:28.277Z,22.73
2024-03-08T11:01:31.107Z,23.30
2024-03-08T11:04:34.654Z,21.85
2024-03-08T11:07:36.678Z,22.25
2024-03-08T11:10:48.835Z,25.00
2024-03-08T11:13:50.752Z,21.80
2024-03-08T11:16:52.682Z,28.42
2024-03-08T11:20:07.101Z,23.67
2024-03-08T11:23:12.691Z,23.13
2024-03-08T11:26:21.703Z,27.33
2024-03-08T11:29:33.767Z,29.53
2024-03-08T11:32:37.648Z,26.63
2024-03-08T11:35:39.937Z,26.80
2024-03-08T11:38:42.950Z,26.42
2024-03-08T11:41:46.634Z,29.77
2024-03-08T11:44:49.155Z,30.57
2024-03-08T11:47:51.825Z,27.88
2024-03-08T11:51:03.094Z,27.02
2024-03-08T11:54:05.267Z,26.70
2024-03-08T11:57:07.568Z,29.20
2024-03-08T12:00:22.856Z,29.57
2024-03-08T12:03:24.699Z,28.20
2024-03-08T12:06:28.205Z,26.20
2024-03-08T12:09:30.503Z,27.67
2024-03-08T12:12:33.861Z,27.87
2024-03-08T12:15:35.877Z,31.83
2024-03-08T12:18:39.804Z,26.40
2024-03-08T12:21:49.659Z,31.25
2024-03-08T12:25:06.669Z,28.15
2024-03-08T12:28:14.648Z,30.73
2024-03-08T12:31:26.961Z,25.67
2024-03-08T12:34:29.587Z,26.10
2024-03-08T12:37:32.568Z,25.58
2024-03-08T12:40:36.226Z,29.30
2024-03-08T12:43:38.350Z,25.43
2024-03-08T12:46:41.587Z,25.60
2024-03-08T12:49:43.550Z,28.38
2024-03-08T12:52:45.454Z,31.80
2024-03-08T12:55:47.351Z,29.80
2024-03-08T12:58:49.405Z,27.67
2024-03-08T13:01:52.752Z,29.00
2024-03-08T13:05:00.376Z,25.13
2024-03-08T13:08:23.077Z,27.73
2024-03-08T13:11:30.927Z,30.85
2024-03-08T13:14:34.375Z,28.50
2024-03-08T13:17:36.194Z,31.93
2024-03-08T13:20:46.904Z,31.25
2024-03-08T13:23:50.669Z,28.60
2024-03-08T13:26:52.487Z,27.27
2024-03-08T13:29:54.321Z,29.53
2024-03-08T13:32:56.497Z,29.03
2024-03-08T13:36:04.566Z,31.83
2024-03-08T13:39:16.357Z,32.00
2024-03-08T13:42:18.392Z,34.20
2024-03-08T13:45:25.085Z,34.23
2024-03-08T13:48:27.466Z,31.50
2024-03-08T13:51:29.214Z,33.90
2024-03-08T13:54:32.607Z,31.60
2024-03-08T13:57:34.736Z,31.02
2024-03-08T14:00:37.802Z,33.73
2024-03-08T14:03:42.749Z,39.07
2024-03-08T14:06:46.138Z,35.85
2024-03-08T14:09:47.986Z,35.50
2024-03-08T14:12:51.840Z,33.50
2024-03-08T14:15:54.097Z,34.83
2024-03-08T14:18:55.914Z,38.33
2024-03-08T14:22:00.332Z,36.60
2024-03-08T14:25:08.905Z,33.72
2024-03-08T14:28:13.577Z,33.00
2024-03-08T14:31:19.940Z,34.10
2024-03-08T14:34:22.078Z,34.27
2024-03-08T14:37:29.324Z,31.00
2024-03-08T14:40:31.822Z,31.23
2024-03-08T14:43:33.714Z,34.90
2024-03-08T14:46:36.352Z,34.80
2024-03-08T14:49:39.365Z,41.07
2024-03-08T14:52:41.434Z,35.63
2024-03-08T14:55:44.089Z,34.15
2024-03-08T14:58:47.633Z,58.20
2024-03-08T15:01:49.521Z,41.83
2024-03-08T15:04:58.461Z,48.97
2024-03-08T15:08:11.140Z,37.63
2024-03-08T15:11:22.412Z,38.60
2024-03-08T15:14:26.171Z,34.85
2024-03-08T15:17:28.020Z,37.53
2024-03-08T15:20:31.414Z,40.50
2024-03-08T15:23:37.395Z,36.28
2024-03-08T15:26:39.853Z,37.47
2024-03-08T15:29:41.911Z,39.65
2024-03-08T15:32:47.265Z,35.63
2024-03-08T15:36:00.722Z,38.03
2024-03-08T15:39:04.118Z,40.60
2024-03-08T15:42:06.690Z,40.95
2024-03-08T15:45:10.030Z,34.20
2024-03-08T15:48:11.855Z,44.37
2024-03-08T15:51:14.702Z,40.03
2024-03-08T15:54:16.948Z,38.65
2024-03-08T15:57:21.689Z,37.58
2024-03-08T16:00:43.080Z,39.45
2024-03-08T16:03:50.765Z,41.93
2024-03-08T16:06:52.734Z,38.30
2024-03-08T16:09:54.755Z,40.03
2024-03-08T16:12:57.549Z,36.05
2024-03-08T16:16:02.081Z,38.72
2024-03-08T16:19:08.450Z,43.27
2024-03-08T16:22:10.340Z,37.03
2024-03-08T16:25:14.421Z,52.03
2024-03-08T16:28:16.512Z,40.88
2024-03-08T16:31:18.344Z,46.55
2024-03-08T16:34:21.558Z,46.23
2024-03-08T16:37:26.219Z,41.73
2024-03-08T16:40:28.959Z,42.75
2024-03-08T16:43:31.107Z,39.20
2024-03-08T16:46:35.785Z,33.97
2024-03-08T16:49:43.493Z,36.93
2024-03-08T16:52:45.709Z,33.70
2024-03-08T16:55:52.638Z,39.58
2024-03-08T16:58:55.265Z,42.85
2024-03-08T17:01:57.218Z,41.17
2024-03-08T17:04:59.154Z,46.77
2024-03-08T17:08:05.946Z,55.40
2024-03-08T17:11:12.452Z,57.63
2024-03-08T17:14:14.290Z,60.70
2024-03-08T17:17:17.548Z,59.05
2024-03-08T17:20:23.408Z,196.97
2024-03-08T17:23:25.366Z,201.90
2024-03-08T17:26:27.383Z,74.90
2024-03-08T17:29:29.217Z,58.45
2024-03-08T17:32:34.677Z,55.55
2024-03-08T17:35:39.322Z,47.77
2024-03-08T17:38:51.736Z,40.20
2024-03-08T17:41:55.064Z,41.53
2024-03-08T17:45:00.080Z,37.38
2024-03-08T17:48:04.933Z,38.05
2024-03-08T17:51:06.764Z,36.67
2024-03-08T17:54:12.048Z,42.53
2024-03-08T17:57:15.617Z,40.97
2024-03-08T18:00:19.313Z,38.47
2024-03-08T18:03:28.827Z,55.28
2024-03-08T18:06:30.976Z,48.63
2024-03-08T18:09:32.741Z,56.00
2024-03-08T18:12:36.161Z,59.92
2024-03-08T18:15:37.967Z,62.17
2024-03-08T18:18:39.689Z,54.20
2024-03-08T18:21:41.474Z,52.77
2024-03-08T18:24:46.283Z,53.53
2024-03-08T18:27:48.084Z,46.10
2024-03-08T18:30:50.903Z,40.13
2024-03-08T18:33:52.834Z,41.75
2024-03-08T18:36:55.100Z,40.80
2024-03-08T18:39:57.375Z,39.40
2024-03-08T18:42:59.285Z,37.65
2024-03-08T18:46:02.368Z,36.78
2024-03-08T18:49:06.236Z,35.80
2024-03-08T18:52:08.501Z,40.53
2024-03-08T18:55:10.921Z,40.43
2024-03-08T18:58:12.874Z,37.05
2024-03-08T19:01:14.799Z,32.95
2024-03-08T19:04:17.227Z,35.45
2024-03-08T19:07:23.224Z,37.33
2024-03-08T19:10:26.648Z,34.97
2024-03-08T19:13:28.877Z,31.80
2024-03-08T19:16:30.734Z,28.42
2024-03-08T19:19:35.878Z,30.58
2024-03-08T19:22:38.932Z,33.80
2024-03-08T19:25:45.851Z,34.47
2024-03-08T19:28:48.187Z,30.83
2024-03-08T19:31:50.858Z,31.85
2024-03-08T19:34:53.167Z,31.25
2024-03-08T19:37:56.788Z,30.47
2024-03-08T19:40:58.768Z,33.17
2024-03-08T19:44:00.781Z,28.88
2024-03-08T19:47:05.614Z,30.77
2024-03-08T19:50:10.221Z,30.80
2024-03-08T19:53:12.718Z,29.80
2024-03-08T19:56:14.598Z,29.87
2024-03-08T19:59:16.677Z,32.75
2024-03-08T20:02:19.209Z,35.80
2024-03-08T20:05:22.238Z,33.83
2024-03-08T20:08:29.813Z,34.93
2024-03-08T20:11:33.314Z,31.37
2024-03-08T20:14:36.347Z,32.65
2024-03-08T20:17:39.745Z,33.17
2024-03-08T20:20:44.246Z,35.00
2024-03-08T20:23:46.613Z,32.87
2024-03-08T20:26:48.341Z,36.60
2024-03-08T20:29:50.378Z,34.65
2024-03-08T20:32:55.613Z,36.05
2024-03-08T20:35:57.442Z,35.25
2024-03-08T20:38:59.213Z,36.23
2024-03-08T20:42:01.338Z,36.20
2024-03-08T20:45:04.474Z,34.38
2024-03-08T20:48:07.637Z,35.63
2024-03-08T20:51:09.635Z,39.88
2024-03-08T20:54:11.397Z,40.73
2024-03-08T20:57:14.185Z,37.70
2024-03-08T21:00:20.488Z,34.60
2024-03-08T21:03:24.701Z,37.15
2024-03-08T21:06:26.713Z,37.92
2024-03-08T21:09:32.035Z,30.77
2024-03-08T21:12:34.278Z,33.73
2024-03-08T21:15:36.761Z,32.97
2024-03-08T21:18:39.998Z,42.42
2024-03-08T21:21:42.157Z,49.67
2024-03-08T21:24:44.145Z,51.93
2024-03-08T21:27:48.909Z,42.03
2024-03-08T21:30:51.675Z,61.10
2024-03-08T21:33:54.535Z,37.53
2024-03-08T21:36:57.938Z,32.33
2024-03-08T21:40:01.161Z,37.27
2024-03-08T21:43:04.721Z,37.70
2024-03-08T21:46:06.822Z,39.85
2024-03-08T21:49:08.556Z,50.15
2024-03-08T21:52:10.310Z,41.72
2024-03-08T21:55:13.028Z,50.03
2024-03-08T21:58:14.867Z,43.23
2024-03-08T22:01:18.618Z,38.53
2024-03-08T22:04:24.107Z,37.08
2024-03-08T22:07:25.933Z,39.03
2024-03-08T22:10:30.763Z,42.00
2024-03-08T22:13:32.916Z,45.60
2024-03-08T22:16:36.581Z,39.28
2024-03-08T22:19:38.501Z,34.85
2024-03-08T22:22:41.908Z,32.22
2024-03-08T22:25:43.858Z,40.27
2024-03-08T22:28:48.142Z,40.80
2024-03-08T22:31:50.717Z,46.55
2024-03-08T22:34:52.543Z,44.55
2024-03-08T22:37:55.474Z,36.35
2024-03-08T22:40:59.546Z,31.20
2024-03-08T22:44:01.530Z,30.63
2024-03-08T22:47:04.839Z,30.23
2024-03-08T22:50:09.330Z,29.50
2024-03-08T22:53:14.745Z,30.90
2024-03-08T22:56:16.796Z,31.80
2024-03-08T22:59:18.892Z,29.40
2024-03-08T23:02:21.568Z,31.77
2024-03-08T23:05:23.963Z,30.10
2024-03-08T23:08:30.718Z,30.67
2024-03-08T23:11:32.560Z,33.10
2024-03-08T23:14:34.373Z,29.77
2024-03-08T23:17:44.936Z,30.00
2024-03-08T23:20:50.026Z,31.23
2024-03-08T23:23:52.163Z,31.23
2024-03-08T23:26:54.122Z,28.03
2024-03-08T23:29:57.650Z,32.00
2024-03-08T23:32:59.524Z,31.35
2024-03-08T23:36:01.572Z,33.55
2024-03-08T23:39:03.665Z,31.05
2024-03-08T23:42:05.925Z,29.40
2024-03-08T23:45:12.601Z,29.17
2024-03-08T23:48:15.853Z,30.02
2024-03-08T23:51:19.341Z,27.02
2024-03-08T23:54:23.644Z,28.65
2024-03-08T23:57:25.468Z,29.97
